createdAt,value
2022-11-03T00:01:52.264Z,31.00
2022-11-03T00:04:22.818Z,28.75
2022-11-03T00:06:54.471Z,27.25
2022-11-03T00:09:24.522Z,27.50
2022-11-03T00:11:53.217Z,27.75
2022-11-03T00:14:21.768Z,30.75
2022-11-03T00:16:50.624Z,34.00
2022-11-03T00:19:18.975Z,30.75
2022-11-03T00:21:47.799Z,29.00
2022-11-03T00:24:16.123Z,29.50
2022-11-03T00:26:44.487Z,30.75
2022-11-03T00:29:15.161Z,29.75
2022-11-03T00:31:45.543Z,30.25
2022-11-03T00:34:14.024Z,29.00
2022-11-03T00:36:44.461Z,28.75
2022-11-03T00:39:13.982Z,26.25
2022-11-03T00:41:42.713Z,26.00
2022-11-03T00:44:11.921Z,25.25
2022-11-03T00:46:40.417Z,29.50
2022-11-03T00:49:10.283Z,26.75
2022-11-03T00:51:38.662Z,26.50
2022-11-03T00:54:08.295Z,24.25
2022-11-03T00:56:41.950Z,25.25
2022-11-03T00:59:11.280Z,23.25
2022-11-03T01:01:47.711Z,25.25
2022-11-03T01:04:36.719Z,23.50
2022-11-03T01:07:06.959Z,22.50
2022-11-03T01:09:35.222Z,25.25
2022-11-03T01:12:15.032Z,19.50
2022-11-03T01:14:50.822Z,22.50
2022-11-03T01:17:27.144Z,19.00
2022-11-03T01:19:56.858Z,22.25
2022-11-03T01:22:25.950Z,21.75
2022-11-03T01:24:54.270Z,20.75
2022-11-03T01:27:25.773Z,20.00
2022-11-03T01:29:54.076Z,23.50
2022-11-03T01:32:22.381Z,21.25
2022-11-03T01:34:50.806Z,23.25
2022-11-03T01:37:19.128Z,21.00
2022-11-03T01:39:47.423Z,26.00
2022-11-03T01:42:15.807Z,21.25
2022-11-03T01:44:49.522Z,25.00
2022-11-03T01:47:31.063Z,21.75
2022-11-03T01:50:07.519Z,25.25
2022-11-03T01:52:49.773Z,22.50
2022-11-03T01:55:23.864Z,17.75
2022-11-03T01:57:55.746Z,20.75
2022-11-03T02:00:24.109Z,19.00
2022-11-03T02:02:52.794Z,21.00
2022-11-03T02:05:24.437Z,22.00
2022-11-03T02:08:15.670Z,19.25
2022-11-03T02:10:44.293Z,17.25
2022-11-03T02:13:19.994Z,20.25
2022-11-03T02:15:54.772Z,18.00
2022-11-03T02:18:28.556Z,18.25
2022-11-03T02:21:26.163Z,15.50
2022-11-03T02:24:03.461Z,19.75
2022-11-03T02:26:32.458Z,17.25
2022-11-03T02:29:00.831Z,18.25
2022-11-03T02:31:52.001Z,18.75
2022-11-03T02:34:40.050Z,17.75
2022-11-03T02:37:22.546Z,18.25
2022-11-03T02:40:02.401Z,19.00
2022-11-03T02:42:32.465Z,15.75
2022-11-03T02:45:04.836Z,18.50
2022-11-03T02:47:34.731Z,17.25
2022-11-03T02:50:09.392Z,17.25
2022-11-03T02:52:47.186Z,16.00
2022-11-03T02:55:36.819Z,14.50
2022-11-03T02:58:19.610Z,16.00
2022-11-03T03:01:05.580Z,15.75
2022-11-03T03:03:50.274Z,15.75
2022-11-03T03:06:31.259Z,17.00
2022-11-03T03:09:06.120Z,15.00
2022-11-03T03:11:40.362Z,15.00
2022-11-03T03:14:21.995Z,14.00
2022-11-03T03:17:00.335Z,13.25
2022-11-03T03:19:39.129Z,13.25
2022-11-03T03:22:20.062Z,14.00
2022-11-03T03:25:11.393Z,12.75
2022-11-03T03:27:45.536Z,14.00
2022-11-03T03:30:14.519Z,12.00
2022-11-03T03:32:48.001Z,12.25
2022-11-03T03:35:24.389Z,12.50
2022-11-03T03:37:58.202Z,9.75
2022-11-03T03:40:32.052Z,11.25
2022-11-03T03:43:02.587Z,12.25
2022-11-03T03:45:32.790Z,14.00
2022-11-03T03:48:01.663Z,9.75
2022-11-03T03:50:34.214Z,11.50
2022-11-03T03:53:05.925Z,13.25
2022-11-03T03:55:40.523Z,8.75
2022-11-03T03:58:11.061Z,9.25
2022-11-03T04:00:41.114Z,9.25
2022-11-03T04:03:21.902Z,8.00
2022-11-03T04:05:50.724Z,10.50
2022-11-03T04:08:19.509Z,10.75
2022-11-03T04:11:06.678Z,9.00
2022-11-03T04:13:53.607Z,8.00
2022-11-03T04:16:40.314Z,8.75
2022-11-03T04:19:30.975Z,9.00
2022-11-03T04:22:17.729Z,8.25
2022-11-03T04:24:48.502Z,10.00
2022-11-03T04:27:28.790Z,9.50
2022-11-03T04:30:10.918Z,6.00
2022-11-03T04:32:39.392Z,11.50
2022-11-03T04:35:17.612Z,8.00
2022-11-03T04:37:52.151Z,8.00
2022-11-03T04:40:20.715Z,8.25
2022-11-03T04:42:49.453Z,7.00
2022-11-03T04:45:39.282Z,7.00
2022-11-03T04:48:35.071Z,7.50
2022-11-03T04:51:12.463Z,7.00
2022-11-03T04:54:04.602Z,7.75
2022-11-03T04:56:33.057Z,7.50
2022-11-03T04:59:01.410Z,9.75
2022-11-03T05:01:31.207Z,8.00
2022-11-03T05:03:59.739Z,8.00
2022-11-03T05:06:31.480Z,9.25
2022-11-03T05:09:22.515Z,7.75
2022-11-03T05:11:51.126Z,8.00
2022-11-03T05:14:31.710Z,9.25
2022-11-03T05:17:02.983Z,9.50
2022-11-03T05:19:44.055Z,7.75
2022-11-03T05:22:22.084Z,7.25
2022-11-03T05:24:57.903Z,8.25
2022-11-03T05:27:26.749Z,7.25
2022-11-03T05:30:00.815Z,7.00
2022-11-03T05:32:35.509Z,6.50
2022-11-03T05:35:05.121Z,8.00
2022-11-03T05:37:35.597Z,8.25
2022-11-03T05:40:06.348Z,8.25
2022-11-03T05:42:39.010Z,7.25
2022-11-03T05:45:34.618Z,9.75
2022-11-03T05:48:05.521Z,8.75
2022-11-03T05:50:37.515Z,9.00
2022-11-03T05:53:16.594Z,8.75
2022-11-03T05:55:45.478Z,10.00
2022-11-03T05:58:25.485Z,9.75
2022-11-03T06:00:55.814Z,8.25
2022-11-03T06:03:30.708Z,9.25
2022-11-03T06:06:01.402Z,7.50
2022-11-03T06:08:38.994Z,8.00
2022-11-03T06:11:17.391Z,10.50
2022-11-03T06:13:45.755Z,10.25
2022-11-03T06:16:14.068Z,7.50
2022-11-03T06:18:42.402Z,10.00
2022-11-03T06:21:20.590Z,7.50
2022-11-03T06:23:49.565Z,7.50
2022-11-03T06:26:25.499Z,9.25
2022-11-03T06:28:54.258Z,8.00
2022-11-03T06:31:25.211Z,10.50
2022-11-03T06:33:54.237Z,10.00
2022-11-03T06:36:26.159Z,10.00
2022-11-03T06:39:21.156Z,10.25
2022-11-03T06:41:49.572Z,10.50
2022-11-03T06:44:25.868Z,9.00
2022-11-03T06:47:08.241Z,8.25
2022-11-03T06:49:37.382Z,10.25
2022-11-03T06:52:44.599Z,10.25
2022-11-03T06:55:15.788Z,11.50
2022-11-03T06:57:49.298Z,10.75
2022-11-03T07:00:40.184Z,9.50
2022-11-03T07:03:32.305Z,10.00
2022-11-03T07:06:22.477Z,10.50
2022-11-03T07:08:54.949Z,10.75
2022-11-03T07:11:26.205Z,11.50
2022-11-03T07:13:58.854Z,10.25
2022-11-03T07:16:34.675Z,10.75
2022-11-03T07:19:07.325Z,8.00
2022-11-03T07:21:38.398Z,8.25
2022-11-03T07:24:17.397Z,9.75
2022-11-03T07:26:45.975Z,10.00
2022-11-03T07:29:23.253Z,9.00
2022-11-03T07:31:55.214Z,9.75
2022-11-03T07:34:33.002Z,9.75
2022-11-03T07:37:02.159Z,10.00
2022-11-03T07:39:37.365Z,9.25
2022-11-03T07:42:19.123Z,9.25
2022-11-03T07:44:48.759Z,10.00
2022-11-03T07:47:27.074Z,9.00
2022-11-03T07:49:58.629Z,9.25
2022-11-03T07:52:28.601Z,7.75
2022-11-03T07:55:00.757Z,10.75
2022-11-03T07:57:33.354Z,9.25
2022-11-03T08:00:23.629Z,9.50
2022-11-03T08:03:03.795Z,9.00
2022-11-03T08:05:32.185Z,9.50
2022-11-03T08:08:00.536Z,10.25
2022-11-03T08:10:36.179Z,10.25
2022-11-03T08:13:05.038Z,9.25
2022-11-03T08:15:33.614Z,12.25
2022-11-03T08:18:01.966Z,11.00
2022-11-03T08:20:30.270Z,9.50
2022-11-03T08:23:24.189Z,9.00
2022-11-03T08:25:47.727Z,10.50
2022-11-03T08:28:16.568Z,9.75
2022-11-03T08:30:44.885Z,10.00
2022-11-03T08:33:13.249Z,10.25
2022-11-03T08:35:41.724Z,13.25
2022-11-03T08:38:10.371Z,9.00
2022-11-03T08:40:38.841Z,9.25
2022-11-03T08:43:07.715Z,11.00
2022-11-03T08:45:36.088Z,7.50
2022-11-03T08:48:04.980Z,10.00
2022-11-03T08:50:33.678Z,9.50
2022-11-03T08:53:02.432Z,11.00
2022-11-03T08:55:40.582Z,11.00
2022-11-03T08:58:09.130Z,12.00
2022-11-03T09:00:40.964Z,10.50
2022-11-03T09:03:09.924Z,8.50
2022-11-03T09:05:38.364Z,10.00
2022-11-03T09:10:56.562Z,10.25
2022-11-03T09:13:25.174Z,10.75
2022-11-03T09:15:53.849Z,10.25
2022-11-03T09:18:23.138Z,9.25
2022-11-03T09:20:51.455Z,11.50
2022-11-03T09:23:19.810Z,8.00
2022-11-03T09:25:48.238Z,9.00
2022-11-03T09:28:16.576Z,10.00
2022-11-03T09:30:44.953Z,9.00
2022-11-03T09:33:13.299Z,8.50
2022-11-03T09:35:41.661Z,10.25
2022-11-03T09:38:10.233Z,9.75
2022-11-03T09:40:39.109Z,8.75
2022-11-03T09:43:07.880Z,8.00
2022-11-03T09:45:36.495Z,9.50
2022-11-03T09:48:05.105Z,9.50
2022-11-03T09:50:34.175Z,8.75
2022-11-03T09:53:02.517Z,10.50
2022-11-03T09:55:30.895Z,9.50
2022-11-03T09:58:02.338Z,9.50
2022-11-03T10:00:30.800Z,7.00
2022-11-03T10:02:59.202Z,8.50
2022-11-03T10:05:29.607Z,10.75
2022-11-03T10:08:05.167Z,13.50
2022-11-03T10:10:35.120Z,7.75
2022-11-03T10:13:05.460Z,9.00
2022-11-03T10:15:34.535Z,8.25
2022-11-03T10:18:03.107Z,11.25
2022-11-03T10:20:31.528Z,10.50
2022-11-03T10:22:59.920Z,8.25
2022-11-03T10:25:38.932Z,10.50
2022-11-03T10:28:22.311Z,8.50
2022-11-03T10:31:16.556Z,12.00
2022-11-03T10:33:56.500Z,12.00
2022-11-03T10:36:27.676Z,9.25
2022-11-03T10:38:56.843Z,11.00
2022-11-03T10:41:30.899Z,7.00
2022-11-03T10:44:06.721Z,11.25
2022-11-03T10:46:51.551Z,12.50
2022-11-03T10:49:21.593Z,10.75
2022-11-03T10:51:55.289Z,11.00
2022-11-03T10:54:25.562Z,12.75
2022-11-03T10:56:54.287Z,11.25
2022-11-03T10:59:32.403Z,12.75
2022-11-03T11:02:02.270Z,15.25
2022-11-03T11:04:33.610Z,14.25
2022-11-03T11:07:02.024Z,14.50
2022-11-03T11:09:30.728Z,16.25
2022-11-03T11:12:06.695Z,18.50
2022-11-03T11:14:40.689Z,16.50
2022-11-03T11:17:40.518Z,15.50
2022-11-03T11:20:22.328Z,16.75
2022-11-03T11:22:51.968Z,14.00
2022-11-03T11:25:20.715Z,13.25
2022-11-03T11:27:58.580Z,14.00
2022-11-03T11:30:36.668Z,13.25
2022-11-03T11:33:23.984Z,11.75
2022-11-03T11:35:56.544Z,14.25
2022-11-03T11:38:56.613Z,15.25
2022-11-03T11:42:03.678Z,17.75
2022-11-03T11:44:41.387Z,16.75
2022-11-03T11:47:46.603Z,18.75
2022-11-03T11:50:26.822Z,16.50
2022-11-03T11:53:10.909Z,19.25
2022-11-03T11:55:50.067Z,17.25
2022-11-03T11:58:46.046Z,18.00
2022-11-03T12:01:31.757Z,17.75
2022-11-03T12:04:07.078Z,20.50
2022-11-03T12:09:14.313Z,21.50
2022-11-03T12:12:04.897Z,19.50
2022-11-03T12:14:40.057Z,21.50
2022-11-03T12:17:20.203Z,21.75
2022-11-03T12:19:51.998Z,20.75
2022-11-03T12:22:29.117Z,22.75
2022-11-03T12:24:57.440Z,21.75
2022-11-03T12:27:25.825Z,21.00
2022-11-03T12:29:56.106Z,24.50
2022-11-03T12:32:33.792Z,28.75
2022-11-03T12:35:09.288Z,25.00
2022-11-03T12:37:38.378Z,23.50
2022-11-03T12:40:07.697Z,20.50
2022-11-03T12:42:36.239Z,22.25
2022-11-03T12:45:05.190Z,24.50
2022-11-03T12:47:33.549Z,23.25
2022-11-03T12:50:01.879Z,24.25
2022-11-03T12:52:30.237Z,21.50
2022-11-03T12:54:58.619Z,23.75
2022-11-03T12:57:27.033Z,21.75
2022-11-03T12:59:55.541Z,22.00
2022-11-03T13:02:24.060Z,23.50
2022-11-03T13:04:52.542Z,20.25
2022-11-03T13:07:26.783Z,22.25
2022-11-03T13:09:57.527Z,21.25
2022-11-03T13:12:36.151Z,20.75
2022-11-03T13:15:07.930Z,25.25
2022-11-03T13:17:59.336Z,27.00
2022-11-03T13:20:24.721Z,28.50
2022-11-03T13:22:53.361Z,27.50
2022-11-03T13:25:21.860Z,26.25
2022-11-03T13:27:54.794Z,28.50
2022-11-03T13:30:24.499Z,29.50
2022-11-03T13:32:53.407Z,23.75
2022-11-03T13:35:21.816Z,25.25
2022-11-03T13:37:50.801Z,23.75
2022-11-03T13:40:50.447Z,29.00
2022-11-03T13:43:08.083Z,29.00
2022-11-03T13:45:36.663Z,27.50
2022-11-03T13:50:54.581Z,29.75
2022-11-03T13:56:16.943Z,32.00
2022-11-03T14:01:38.958Z,29.50
2022-11-03T14:06:56.446Z,32.75
2022-11-03T14:09:25.435Z,34.25
2022-11-03T14:12:12.284Z,32.50
2022-11-03T14:14:40.598Z,33.75
2022-11-03T14:17:09.181Z,33.00
2022-11-03T14:19:43.775Z,34.50
2022-11-03T14:22:13.360Z,32.75
2022-11-03T14:24:42.165Z,31.75
2022-11-03T14:27:11.135Z,31.25
2022-11-03T14:29:39.696Z,33.00
2022-11-03T14:32:08.051Z,34.75
2022-11-03T14:34:36.571Z,33.00
2022-11-03T14:37:05.609Z,33.75
2022-11-03T14:39:34.033Z,32.25
2022-11-03T14:42:05.253Z,31.50
2022-11-03T14:44:37.439Z,31.75
2022-11-03T14:47:08.362Z,32.50
2022-11-03T14:49:37.316Z,30.75
2022-11-03T14:52:08.179Z,31.50
2022-11-03T14:54:37.421Z,29.75
2022-11-03T14:57:06.339Z,32.00
2022-11-03T14:59:35.738Z,30.25
2022-11-03T15:02:04.937Z,31.50
2022-11-03T15:04:33.519Z,29.50
2022-11-03T15:07:02.492Z,31.75
2022-11-03T15:09:30.864Z,32.00
2022-11-03T15:11:59.178Z,31.75
2022-11-03T15:14:27.514Z,30.75
2022-11-03T15:16:55.886Z,31.00
2022-11-03T15:19:24.329Z,34.00
2022-11-03T15:21:52.645Z,33.50
2022-11-03T15:27:09.272Z,31.00
2022-11-03T15:29:38.517Z,32.50
2022-11-03T15:32:07.791Z,33.00
2022-11-03T15:34:36.103Z,34.00
2022-11-03T15:37:04.440Z,31.50
2022-11-03T15:39:34.069Z,34.00
2022-11-03T15:42:02.590Z,35.50
2022-11-03T15:44:31.089Z,34.00
2022-11-03T15:46:59.412Z,31.50
2022-11-03T15:49:27.767Z,33.00
2022-11-03T15:51:56.060Z,34.00
2022-11-03T15:54:24.436Z,33.00
2022-11-03T15:56:52.759Z,34.25
2022-11-03T15:59:21.093Z,34.00
2022-11-03T16:01:49.501Z,35.00
2022-11-03T16:04:17.891Z,33.00
2022-11-03T16:07:06.876Z,33.25
2022-11-03T16:09:34.689Z,32.00
2022-11-03T16:12:03.160Z,32.00
2022-11-03T16:14:31.986Z,31.25
2022-11-03T16:17:00.619Z,30.50
2022-11-03T16:19:28.965Z,31.75
2022-11-03T16:21:57.301Z,32.75
2022-11-03T16:24:33.327Z,28.75
2022-11-03T16:27:04.044Z,29.75
2022-11-03T16:29:32.378Z,30.75
2022-11-03T16:32:00.652Z,29.25
2022-11-03T16:34:29.409Z,29.00
2022-11-03T16:36:57.853Z,29.75
2022-11-03T16:39:26.251Z,30.00
2022-11-03T16:41:55.904Z,31.50
2022-11-03T16:44:24.299Z,31.00
2022-11-03T16:46:52.674Z,31.75
2022-11-03T16:49:21.089Z,32.00
2022-11-03T16:51:49.450Z,32.50
2022-11-03T16:54:18.084Z,30.50
2022-11-03T16:56:50.567Z,34.00
2022-11-03T16:59:24.529Z,31.00
2022-11-03T17:01:52.969Z,32.25
2022-11-03T17:04:21.416Z,31.00
2022-11-03T17:06:49.760Z,28.25
2022-11-03T17:09:18.143Z,32.25
2022-11-03T17:11:46.428Z,32.75
2022-11-03T17:14:14.802Z,30.50
2022-11-03T17:16:47.644Z,31.75
2022-11-03T17:19:16.892Z,31.50
2022-11-03T17:21:45.211Z,30.25
2022-11-03T17:24:14.207Z,29.25
2022-11-03T17:27:00.372Z,31.00
2022-11-03T17:29:51.542Z,29.75
2022-11-03T17:32:44.276Z,29.00
2022-11-03T17:35:18.356Z,31.00
2022-11-03T17:37:46.960Z,31.50
2022-11-03T17:40:21.393Z,30.25
2022-11-03T17:42:50.565Z,29.50
2022-11-03T17:45:21.715Z,31.00
2022-11-03T17:47:50.795Z,30.75
2022-11-03T17:50:22.310Z,27.00
2022-11-03T17:52:52.219Z,30.50
2022-11-03T17:55:32.715Z,29.00
2022-11-03T17:58:04.961Z,29.00
2022-11-03T18:00:33.423Z,31.00
2022-11-03T18:03:01.821Z,31.50
2022-11-03T18:05:32.296Z,32.75
2022-11-03T18:08:03.108Z,30.25
2022-11-03T18:10:39.260Z,32.25
2022-11-03T18:13:17.477Z,32.00
2022-11-03T18:15:52.128Z,30.50
2022-11-03T18:18:42.993Z,26.50
2022-11-03T18:21:23.448Z,30.75
2022-11-03T18:23:51.905Z,28.75
2022-11-03T18:26:26.544Z,29.75
2022-11-03T18:28:55.317Z,28.50
2022-11-03T18:31:45.180Z,27.25
2022-11-03T18:34:23.657Z,27.50
2022-11-03T18:36:53.564Z,28.75
2022-11-03T18:39:26.447Z,30.00
2022-11-03T18:41:55.117Z,31.00
2022-11-03T18:44:25.153Z,31.00
2022-11-03T18:46:55.502Z,32.50
2022-11-03T18:49:24.997Z,33.00
2022-11-03T18:52:02.466Z,31.00
2022-11-03T18:54:32.435Z,32.00
2022-11-03T18:57:01.504Z,34.00
2022-11-03T18:59:40.075Z,30.50
2022-11-03T19:02:21.428Z,30.50
2022-11-03T19:04:50.402Z,29.50
2022-11-03T19:07:30.525Z,29.00
2022-11-03T19:09:59.145Z,30.75
2022-11-03T19:12:27.522Z,32.00
2022-11-03T19:14:55.970Z,30.25
2022-11-03T19:17:26.357Z,31.25
2022-11-03T19:19:55.222Z,31.75
2022-11-03T19:22:24.971Z,28.50
2022-11-03T19:24:53.486Z,30.50
2022-11-03T19:27:29.838Z,29.25
2022-11-03T19:30:00.819Z,29.25
2022-11-03T19:32:41.372Z,31.00
2022-11-03T19:35:19.049Z,29.00
2022-11-03T19:37:53.327Z,30.00
2022-11-03T19:40:22.062Z,28.75
2022-11-03T19:42:50.415Z,31.00
2022-11-03T19:45:21.548Z,28.75
2022-11-03T19:50:49.609Z,31.75
2022-11-03T19:53:30.252Z,32.00
2022-11-03T19:55:59.401Z,29.25
2022-11-03T19:58:30.104Z,32.00
2022-11-03T20:00:59.441Z,27.50
2022-11-03T20:03:30.042Z,30.50
2022-11-03T20:05:59.286Z,29.50
2022-11-03T20:08:30.626Z,30.50
2022-11-03T20:10:59.370Z,31.75
2022-11-03T20:13:31.694Z,30.00
2022-11-03T20:16:01.315Z,28.75
2022-11-03T20:18:30.268Z,28.50
2022-11-03T20:20:59.654Z,31.75
2022-11-03T20:23:31.572Z,29.75
2022-11-03T20:26:01.675Z,29.25
2022-11-03T20:28:33.162Z,28.75
2022-11-03T20:31:04.762Z,32.25
2022-11-03T20:33:33.207Z,28.75
2022-11-03T20:36:02.981Z,28.75
2022-11-03T20:38:32.388Z,27.75
2022-11-03T20:41:07.615Z,31.00
2022-11-03T20:43:44.941Z,28.25
2022-11-03T20:46:33.704Z,31.00
2022-11-03T20:49:02.126Z,29.75
2022-11-03T20:51:35.985Z,32.00
2022-11-03T20:54:05.487Z,30.50
2022-11-03T20:56:33.829Z,28.50
2022-11-03T20:59:02.354Z,31.00
2022-11-03T21:01:35.109Z,28.75
2022-11-03T21:04:04.727Z,31.25
2022-11-03T21:06:34.193Z,29.00
2022-11-03T21:09:02.886Z,32.00
2022-11-03T21:11:40.683Z,28.50
2022-11-03T21:14:30.733Z,29.00
2022-11-03T21:17:17.343Z,29.00
2022-11-03T21:20:02.871Z,29.00
2022-11-03T21:22:51.857Z,31.25
2022-11-03T21:25:23.709Z,31.50
2022-11-03T21:27:52.807Z,27.50
2022-11-03T21:30:21.262Z,31.00
2022-11-03T21:32:49.645Z,25.00
2022-11-03T21:35:22.021Z,28.50
2022-11-03T21:37:50.843Z,28.25
2022-11-03T21:40:19.299Z,29.00
2022-11-03T21:43:05.731Z,24.50
2022-11-03T21:45:34.406Z,26.25
2022-11-03T21:48:21.605Z,24.50
2022-11-03T21:50:50.651Z,22.50
2022-11-03T21:53:19.127Z,26.25
2022-11-03T21:55:50.737Z,27.25
2022-11-03T21:58:19.100Z,25.00
2022-11-03T22:00:48.102Z,22.75
2022-11-03T22:03:16.739Z,24.75
2022-11-03T22:05:45.186Z,24.75
2022-11-03T22:08:13.793Z,23.75
2022-11-03T22:10:42.343Z,24.50
2022-11-03T22:13:10.964Z,23.75
2022-11-03T22:15:57.793Z,25.00
2022-11-03T22:18:26.469Z,23.50
2022-11-03T22:21:12.898Z,28.25
2022-11-03T22:23:59.456Z,25.75
2022-11-03T22:26:45.950Z,23.50
2022-11-03T22:29:32.893Z,22.75
2022-11-03T22:32:01.206Z,26.00
2022-11-03T22:34:47.821Z,25.25
2022-11-03T22:37:16.155Z,21.25
2022-11-03T22:40:02.720Z,21.25
2022-11-03T22:42:49.342Z,21.00
2022-11-03T22:45:35.990Z,22.00
2022-11-03T22:48:05.673Z,21.50
2022-11-03T22:50:34.326Z,20.50
2022-11-03T22:53:22.488Z,21.75
2022-11-03T22:55:50.847Z,20.50
2022-11-03T22:58:19.748Z,21.25
2022-11-03T23:00:48.476Z,23.50
2022-11-03T23:03:16.837Z,24.75
2022-11-03T23:05:45.180Z,25.75
2022-11-03T23:08:13.484Z,22.75
2022-11-03T23:10:41.859Z,22.25
2022-11-03T23:13:10.366Z,24.00
2022-11-03T23:15:44.532Z,23.25
2022-11-03T23:18:31.152Z,26.75
2022-11-03T23:21:08.467Z,22.50
2022-11-03T23:23:57.165Z,25.25
2022-11-03T23:26:28.026Z,25.25
2022-11-03T23:28:56.508Z,24.00
2022-11-03T23:31:24.823Z,23.50
2022-11-03T23:33:53.548Z,25.25
2022-11-03T23:36:22.239Z,23.25
2022-11-03T23:38:50.566Z,24.50
2022-11-03T23:41:20.457Z,25.75
2022-11-03T23:43:48.863Z,26.25
2022-11-03T23:46:41.052Z,24.75
2022-11-03T23:49:09.805Z,25.50
2022-11-03T23:51:40.400Z,29.00
2022-11-03T23:54:10.644Z,25.75
2022-11-03T23:57:02.448Z,29.00
2022-11-03T23:59:32.510Z,31.25
